createdAt,value
2023-04-25T00:02:26.376Z,18.50
2023-04-25T00:04:53.683Z,18.50
2023-04-25T00:07:20.980Z,18.50
2023-04-25T00:09:47.938Z,18.40
2023-04-25T00:12:14.988Z,18.40
2023-04-25T00:14:41.976Z,18.40
2023-04-25T00:17:08.895Z,18.40
2023-04-25T00:19:35.909Z,18.40
2023-04-25T00:22:02.948Z,18.40
2023-04-25T00:24:29.903Z,18.40
2023-04-25T00:26:56.822Z,18.40
2023-04-25T00:29:23.794Z,18.40
2023-04-25T00:31:50.910Z,18.30
2023-04-25T00:34:17.912Z,18.30
2023-04-25T00:36:44.973Z,18.30
2023-04-25T00:39:13.842Z,18.30
2023-04-25T00:41:41.500Z,18.30
2023-04-25T00:44:12.221Z,18.20
2023-04-25T00:46:40.730Z,18.20
2023-04-25T00:49:07.704Z,18.20
2023-04-25T00:51:35.247Z,18.10
2023-04-25T00:54:02.625Z,18.20
2023-04-25T00:56:29.561Z,18.20
2023-04-25T00:58:57.745Z,18.20
2023-04-25T01:01:24.833Z,18.20
2023-04-25T01:03:53.798Z,18.20
2023-04-25T01:06:21.081Z,18.20
2023-04-25T01:08:48.476Z,18.20
2023-04-25T01:11:15.681Z,18.20
2023-04-25T01:13:42.656Z,18.20
2023-04-25T01:16:09.760Z,18.20
2023-04-25T01:18:39.812Z,18.20
2023-04-25T01:21:11.270Z,18.20
2023-04-25T01:23:41.016Z,18.20
2023-04-25T01:26:10.990Z,18.10
2023-04-25T01:28:42.222Z,18.10
2023-04-25T01:31:10.608Z,18.10
2023-04-25T01:33:38.040Z,18.00
2023-04-25T01:36:05.487Z,18.00
2023-04-25T01:38:32.952Z,18.00
2023-04-25T01:41:01.243Z,17.90
2023-04-25T01:43:28.921Z,18.00
2023-04-25T01:45:57.979Z,17.90
2023-04-25T01:48:25.304Z,18.00
2023-04-25T01:50:52.456Z,17.90
2023-04-25T01:53:19.717Z,18.00
2023-04-25T01:55:47.260Z,17.90
2023-04-25T01:58:16.706Z,17.90
2023-04-25T02:01:02.647Z,17.90
2023-04-25T02:03:37.689Z,17.90
2023-04-25T02:06:08.335Z,17.90
2023-04-25T02:08:38.980Z,17.90
2023-04-25T02:11:06.037Z,17.90
2023-04-25T02:13:40.446Z,17.90
2023-04-25T02:16:26.282Z,17.90
2023-04-25T02:18:53.808Z,17.80
2023-04-25T02:21:20.984Z,17.80
2023-04-25T02:23:50.106Z,17.80
2023-04-25T02:26:17.279Z,17.80
2023-04-25T02:28:44.279Z,17.80
2023-04-25T02:31:11.344Z,17.80
2023-04-25T02:33:38.400Z,17.90
2023-04-25T02:36:07.011Z,17.80
2023-04-25T02:38:34.096Z,17.80
2023-04-25T02:41:01.287Z,17.80
2023-04-25T02:43:28.268Z,17.80
2023-04-25T02:45:55.380Z,17.80
2023-04-25T02:48:22.300Z,17.80
2023-04-25T02:50:49.600Z,17.70
2023-04-25T02:53:16.661Z,17.70
2023-04-25T02:55:48.811Z,17.70
2023-04-25T02:58:16.556Z,17.70
2023-04-25T03:00:47.380Z,17.70
2023-04-25T03:03:14.804Z,17.70
2023-04-25T03:05:42.105Z,17.70
2023-04-25T03:08:09.312Z,17.60
2023-04-25T03:10:39.636Z,17.60
2023-04-25T03:13:09.541Z,17.60
2023-04-25T03:15:37.400Z,17.60
2023-04-25T03:18:05.129Z,17.60
2023-04-25T03:20:34.728Z,17.60
2023-04-25T03:23:01.771Z,17.50
2023-04-25T03:25:30.005Z,17.50
2023-04-25T03:27:57.004Z,17.50
2023-04-25T03:30:24.008Z,17.50
2023-04-25T03:32:51.126Z,17.50
2023-04-25T03:35:18.523Z,17.50
2023-04-25T03:37:46.640Z,17.40
2023-04-25T03:40:18.373Z,17.40
2023-04-25T03:43:08.077Z,17.40
2023-04-25T03:45:36.578Z,17.40
2023-04-25T03:48:03.994Z,17.40
2023-04-25T03:50:31.380Z,17.40
2023-04-25T03:52:58.450Z,17.40
2023-04-25T03:55:28.141Z,17.30
2023-04-25T03:57:55.270Z,17.30
2023-04-25T04:00:23.128Z,17.30
2023-04-25T04:02:53.070Z,17.20
2023-04-25T04:05:20.445Z,17.20
2023-04-25T04:07:53.527Z,17.20
2023-04-25T04:10:20.628Z,17.20
2023-04-25T04:12:47.636Z,17.10
2023-04-25T04:15:15.080Z,17.10
2023-04-25T04:17:44.782Z,17.10
2023-04-25T04:20:12.180Z,17.00
2023-04-25T04:22:40.895Z,17.00
2023-04-25T04:25:12.720Z,17.00
2023-04-25T04:27:58.297Z,16.90
2023-04-25T04:30:37.269Z,17.00
2023-04-25T04:33:06.996Z,16.90
2023-04-25T04:35:34.327Z,16.90
2023-04-25T04:38:01.571Z,16.90
2023-04-25T04:40:33.229Z,16.90
2023-04-25T04:43:11.137Z,16.90
2023-04-25T04:46:05.141Z,16.90
2023-04-25T04:48:35.398Z,16.90
2023-04-25T04:51:21.873Z,16.80
2023-04-25T04:53:54.579Z,16.80
2023-04-25T04:56:47.617Z,16.80
2023-04-25T04:59:35.560Z,16.80
2023-04-25T05:02:19.748Z,16.80
2023-04-25T05:05:22.061Z,16.80
2023-04-25T05:08:00.643Z,16.80
2023-04-25T05:10:42.920Z,16.80
2023-04-25T05:13:23.625Z,16.80
2023-04-25T05:16:14.152Z,16.80
2023-04-25T05:18:56.338Z,16.70
2023-04-25T05:21:58.474Z,16.80
2023-04-25T05:24:40.149Z,16.80
2023-04-25T05:27:29.335Z,16.80
2023-04-25T05:29:59.150Z,16.80
2023-04-25T05:32:35.671Z,16.80
2023-04-25T05:35:03.868Z,16.80
2023-04-25T05:37:41.408Z,16.80
2023-04-25T05:40:13.720Z,16.90
2023-04-25T05:42:59.288Z,16.90
2023-04-25T05:45:43.994Z,16.90
2023-04-25T05:48:49.636Z,16.90
2023-04-25T05:51:36.152Z,16.90
2023-04-25T05:54:16.108Z,17.00
2023-04-25T05:56:43.239Z,16.90
2023-04-25T05:59:10.367Z,17.00
2023-04-25T06:01:37.695Z,17.00
2023-04-25T06:04:05.026Z,17.00
2023-04-25T06:06:33.815Z,17.00
2023-04-25T06:09:01.488Z,17.00
2023-04-25T06:11:28.402Z,17.00
2023-04-25T06:13:55.772Z,17.00
2023-04-25T06:16:23.159Z,17.00
2023-04-25T06:18:50.384Z,17.00
2023-04-25T06:21:17.365Z,17.00
2023-04-25T06:23:44.745Z,17.00
2023-04-25T06:26:13.737Z,17.00
2023-04-25T06:28:43.482Z,17.00
2023-04-25T06:31:10.901Z,17.00
2023-04-25T06:33:38.174Z,17.00
2023-04-25T06:36:05.559Z,17.00
2023-04-25T06:38:33.194Z,17.10
2023-04-25T06:41:00.127Z,17.10
2023-04-25T06:43:34.059Z,17.20
2023-04-25T06:46:19.705Z,17.10
2023-04-25T06:48:48.408Z,17.20
2023-04-25T06:51:15.661Z,17.10
2023-04-25T06:53:44.352Z,17.10
2023-04-25T06:56:18.872Z,17.10
2023-04-25T06:59:01.797Z,17.10
2023-04-25T07:01:40.157Z,17.20
2023-04-25T07:04:12.626Z,17.10
2023-04-25T07:06:45.826Z,17.20
2023-04-25T07:09:13.839Z,17.20
2023-04-25T07:11:43.158Z,17.20
2023-04-25T07:14:10.091Z,17.20
2023-04-25T07:16:37.203Z,17.30
2023-04-25T07:19:04.424Z,17.30
2023-04-25T07:21:32.339Z,17.30
2023-04-25T07:24:01.948Z,17.40
2023-04-25T07:26:34.410Z,17.40
2023-04-25T07:29:20.192Z,17.40
2023-04-25T07:31:47.193Z,17.40
2023-04-25T07:34:14.116Z,17.40
2023-04-25T07:36:41.158Z,17.40
2023-04-25T07:39:10.119Z,17.40
2023-04-25T07:41:37.282Z,17.30
2023-04-25T07:44:04.499Z,17.30
2023-04-25T07:46:32.779Z,17.30
2023-04-25T07:49:00.061Z,17.30
2023-04-25T07:51:27.121Z,17.30
2023-04-25T07:53:56.163Z,17.30
2023-04-25T07:56:23.117Z,17.30
2023-04-25T07:58:52.872Z,17.30
2023-04-25T08:01:22.600Z,17.30
2023-04-25T08:03:58.602Z,17.30
2023-04-25T08:06:49.387Z,17.30
2023-04-25T08:09:22.404Z,17.30
2023-04-25T08:11:49.935Z,17.40
2023-04-25T08:14:20.769Z,17.40
2023-04-25T08:16:49.150Z,17.50
2023-04-25T08:19:16.702Z,17.60
2023-04-25T08:21:44.013Z,17.70
2023-04-25T08:24:15.762Z,17.80
2023-04-25T08:26:43.811Z,17.90
2023-04-25T08:29:15.871Z,18.00
2023-04-25T08:31:43.964Z,18.20
2023-04-25T08:34:12.157Z,18.30
2023-04-25T08:36:44.117Z,18.40
2023-04-25T08:39:34.146Z,18.50
2023-04-25T08:42:22.910Z,18.50
2023-04-25T08:44:51.703Z,18.50
2023-04-25T08:47:22.733Z,18.50
2023-04-25T08:49:55.214Z,18.50
2023-04-25T08:52:24.910Z,18.50
2023-04-25T08:54:55.278Z,18.50
2023-04-25T08:57:22.576Z,18.50
2023-04-25T08:59:50.940Z,18.50
2023-04-25T09:02:20.938Z,18.60
2023-04-25T09:04:51.309Z,18.50
2023-04-25T09:07:22.091Z,18.50
2023-04-25T09:09:49.401Z,18.50
2023-04-25T09:12:22.257Z,18.40
2023-04-25T09:15:19.628Z,18.40
2023-04-25T09:18:02.822Z,18.30
2023-04-25T09:20:56.554Z,18.40
2023-04-25T09:23:28.554Z,18.40
2023-04-25T09:25:55.551Z,18.40
2023-04-25T09:28:28.544Z,18.30
2023-04-25T09:30:59.134Z,18.30
2023-04-25T09:33:37.359Z,18.30
2023-04-25T09:36:08.336Z,18.30
2023-04-25T09:39:01.806Z,18.30
2023-04-25T09:41:39.923Z,18.30
2023-04-25T09:44:07.196Z,18.40
2023-04-25T09:46:37.944Z,18.40
2023-04-25T09:49:09.321Z,18.40
2023-04-25T09:52:07.687Z,18.50
2023-04-25T09:54:53.286Z,18.50
2023-04-25T09:57:27.233Z,18.60
2023-04-25T09:59:57.047Z,18.60
2023-04-25T10:02:28.296Z,18.70
2023-04-25T10:05:04.663Z,18.70
2023-04-25T10:07:39.789Z,18.80
2023-04-25T10:10:14.045Z,18.80
2023-04-25T10:12:41.683Z,18.70
2023-04-25T10:15:10.087Z,18.80
2023-04-25T10:17:37.301Z,18.90
2023-04-25T10:20:08.600Z,18.90
2023-04-25T10:22:42.904Z,19.00
2023-04-25T10:25:10.877Z,19.00
2023-04-25T10:27:38.367Z,19.00
2023-04-25T10:30:16.482Z,18.90
2023-04-25T10:32:44.371Z,18.90
2023-04-25T10:35:19.891Z,18.90
2023-04-25T10:38:06.107Z,18.90
2023-04-25T10:40:34.342Z,18.90
2023-04-25T10:43:32.147Z,18.90
2023-04-25T10:46:01.673Z,18.90
2023-04-25T10:48:32.769Z,18.90
2023-04-25T10:51:13.140Z,18.90
2023-04-25T10:53:40.077Z,18.90
2023-04-25T10:56:22.268Z,19.00
2023-04-25T10:58:51.998Z,19.00
2023-04-25T11:01:26.455Z,19.00
2023-04-25T11:03:59.649Z,19.00
2023-04-25T11:07:05.538Z,19.00
2023-04-25T11:09:34.994Z,19.00
2023-04-25T11:12:02.051Z,18.90
2023-04-25T11:14:29.056Z,18.90
2023-04-25T11:17:00.700Z,18.90
2023-04-25T11:19:29.376Z,18.90
2023-04-25T11:22:01.067Z,18.90
2023-04-25T11:24:33.403Z,18.90
2023-04-25T11:27:00.996Z,19.00
2023-04-25T11:29:28.571Z,19.10
2023-04-25T11:31:58.968Z,19.30
2023-04-25T11:34:27.159Z,19.40
2023-04-25T11:36:54.774Z,19.60
2023-04-25T11:39:22.461Z,19.60
2023-04-25T11:41:49.549Z,19.80
2023-04-25T11:44:17.860Z,19.90
2023-04-25T11:46:45.658Z,20.10
2023-04-25T11:49:13.105Z,20.20
2023-04-25T11:51:48.356Z,20.20
2023-04-25T11:54:16.475Z,20.30
2023-04-25T11:56:45.157Z,20.40
2023-04-25T11:59:12.911Z,20.40
2023-04-25T12:01:42.696Z,20.50
2023-04-25T12:04:13.912Z,20.50
2023-04-25T12:06:42.611Z,20.60
2023-04-25T12:09:11.885Z,20.60
2023-04-25T12:11:45.785Z,20.60
2023-04-25T12:14:21.255Z,20.60
2023-04-25T12:16:49.745Z,20.60
2023-04-25T12:19:21.877Z,20.50
2023-04-25T12:21:57.892Z,20.40
2023-04-25T12:24:28.415Z,20.40
2023-04-25T12:27:01.965Z,20.30
2023-04-25T12:29:34.723Z,20.10
2023-04-25T12:32:05.896Z,20.00
2023-04-25T12:34:33.512Z,19.80
2023-04-25T12:37:00.568Z,19.70
2023-04-25T12:39:27.438Z,19.70
2023-04-25T12:41:57.098Z,19.60
2023-04-25T12:44:24.008Z,19.50
2023-04-25T12:46:51.126Z,19.40
2023-04-25T12:49:19.372Z,19.30
2023-04-25T12:51:47.825Z,19.20
2023-04-25T12:54:15.398Z,18.90
2023-04-25T12:56:42.889Z,18.50
2023-04-25T12:59:10.478Z,17.30
2023-04-25T13:01:37.611Z,16.50
2023-04-25T13:04:05.079Z,16.00
2023-04-25T13:06:32.382Z,15.70
2023-04-25T13:08:59.272Z,15.40
2023-04-25T13:11:26.240Z,15.30
2023-04-25T13:13:53.515Z,15.30
2023-04-25T13:16:22.047Z,15.30
2023-04-25T13:18:49.657Z,15.40
2023-04-25T13:21:16.877Z,15.40
2023-04-25T13:23:44.068Z,15.40
2023-04-25T13:26:11.367Z,15.50
2023-04-25T13:28:38.382Z,15.70
2023-04-25T13:31:06.354Z,15.80
2023-04-25T13:33:33.422Z,15.90
2023-04-25T13:36:02.138Z,16.10
2023-04-25T13:38:29.169Z,16.30
2023-04-25T13:40:56.457Z,16.40
2023-04-25T13:43:23.857Z,16.60
2023-04-25T13:45:51.619Z,16.70
2023-04-25T13:48:21.039Z,16.90
2023-04-25T13:50:48.049Z,17.00
2023-04-25T13:53:15.237Z,17.20
2023-04-25T13:55:42.229Z,17.30
2023-04-25T13:58:10.999Z,17.40
2023-04-25T14:00:40.388Z,17.50
2023-04-25T14:03:10.708Z,17.70
2023-04-25T14:05:39.372Z,17.80
2023-04-25T14:08:10.221Z,17.90
2023-04-25T14:10:37.894Z,17.90
2023-04-25T14:13:06.632Z,18.00
2023-04-25T14:15:35.054Z,18.20
2023-04-25T14:18:02.750Z,18.30
2023-04-25T14:20:30.386Z,18.30
2023-04-25T14:22:59.030Z,18.40
2023-04-25T14:25:26.610Z,18.50
2023-04-25T14:27:53.629Z,18.60
2023-04-25T14:30:21.685Z,18.80
2023-04-25T14:32:51.022Z,18.90
2023-04-25T14:35:18.376Z,19.10
2023-04-25T14:37:45.562Z,19.30
2023-04-25T14:40:14.183Z,19.40
2023-04-25T14:42:41.550Z,19.60
2023-04-25T14:45:09.768Z,19.80
2023-04-25T14:47:40.395Z,20.00
2023-04-25T14:50:09.528Z,20.20
2023-04-25T14:52:37.052Z,20.40
2023-04-25T14:55:06.901Z,20.60
2023-04-25T14:57:34.416Z,20.80
2023-04-25T15:00:02.137Z,21.10
2023-04-25T15:02:30.112Z,21.30
2023-04-25T15:04:57.545Z,21.60
2023-04-25T15:07:24.841Z,21.80
2023-04-25T15:09:52.034Z,22.20
2023-04-25T15:12:18.958Z,22.60
2023-04-25T15:14:46.424Z,23.10
2023-04-25T15:17:15.093Z,23.80
2023-04-25T15:19:42.143Z,24.60
2023-04-25T15:22:09.194Z,25.50
2023-04-25T15:24:36.507Z,26.30
2023-04-25T15:27:05.390Z,27.20
2023-04-25T15:29:32.303Z,28.10
2023-04-25T15:31:59.313Z,28.90
2023-04-25T15:34:26.818Z,29.60
2023-04-25T15:36:53.815Z,30.30
2023-04-25T15:39:20.719Z,30.90
2023-04-25T15:41:48.437Z,31.50
2023-04-25T15:44:15.391Z,31.90
2023-04-25T15:46:42.492Z,32.30
2023-04-25T15:49:09.480Z,32.60
2023-04-25T15:51:36.633Z,32.90
2023-04-25T15:54:04.136Z,33.10
2023-04-25T15:56:31.500Z,33.10
2023-04-25T15:58:58.627Z,32.70
2023-04-25T16:01:26.488Z,32.20
2023-04-25T16:03:54.069Z,31.50
2023-04-25T16:06:21.161Z,30.80
2023-04-25T16:08:48.311Z,30.20
2023-04-25T16:11:15.472Z,29.80
2023-04-25T16:13:42.428Z,29.40
2023-04-25T16:16:09.399Z,29.00
2023-04-25T16:18:36.506Z,28.90
2023-04-25T16:21:04.024Z,28.80
2023-04-25T16:23:31.525Z,28.90
2023-04-25T16:25:58.513Z,29.30
2023-04-25T16:28:28.292Z,29.80
2023-04-25T16:30:55.466Z,30.20
2023-04-25T16:33:22.522Z,30.50
2023-04-25T16:35:50.861Z,30.80
2023-04-25T16:38:17.808Z,31.20
2023-04-25T16:40:44.821Z,31.70
2023-04-25T16:43:11.804Z,31.90
2023-04-25T16:45:38.747Z,31.90
2023-04-25T16:48:05.787Z,31.90
2023-04-25T16:50:32.826Z,31.90
2023-04-25T16:52:59.795Z,31.90
2023-04-25T16:55:26.743Z,31.70
2023-04-25T16:57:53.707Z,31.40
2023-04-25T17:00:20.820Z,31.10
2023-04-25T17:02:48.023Z,30.70
2023-04-25T17:05:14.998Z,30.60
2023-04-25T17:07:42.087Z,30.50
2023-04-25T17:10:09.458Z,30.50
2023-04-25T17:12:36.461Z,30.50
2023-04-25T17:15:03.519Z,30.30
2023-04-25T17:17:31.755Z,30.00
2023-04-25T17:19:58.748Z,29.50
2023-04-25T17:22:25.777Z,29.00
2023-04-25T17:24:52.800Z,28.40
2023-04-25T17:27:19.711Z,27.70
2023-04-25T17:29:46.716Z,27.20
2023-04-25T17:32:15.609Z,26.70
2023-04-25T17:34:46.163Z,26.20
2023-04-25T17:37:16.184Z,25.80
2023-04-25T17:39:44.000Z,25.50
2023-04-25T17:42:11.868Z,25.10
2023-04-25T17:44:39.560Z,24.70
2023-04-25T17:47:08.048Z,24.40
2023-04-25T17:49:35.969Z,24.10
2023-04-25T17:52:03.348Z,23.70
2023-04-25T17:54:30.270Z,23.50
2023-04-25T17:56:57.295Z,23.20
2023-04-25T17:59:24.252Z,23.00
2023-04-25T18:01:51.489Z,22.70
2023-04-25T18:04:18.786Z,22.50
2023-04-25T18:06:45.783Z,22.30
2023-04-25T18:09:18.482Z,22.00
2023-04-25T18:11:46.522Z,21.80
2023-04-25T18:14:14.857Z,21.60
2023-04-25T18:16:45.679Z,21.40
2023-04-25T18:19:15.678Z,21.20
2023-04-25T18:21:45.728Z,21.10
2023-04-25T18:24:13.774Z,20.90
2023-04-25T18:26:40.953Z,20.80
2023-04-25T18:29:07.931Z,20.70
2023-04-25T18:31:35.995Z,20.60
2023-04-25T18:34:03.279Z,20.40
2023-04-25T18:36:30.240Z,20.30
2023-04-25T18:39:01.123Z,20.20
2023-04-25T18:41:52.077Z,20.10
2023-04-25T18:44:17.319Z,19.90
2023-04-25T18:46:45.881Z,19.80
2023-04-25T18:49:13.350Z,19.70
2023-04-25T18:51:41.607Z,19.70
2023-04-25T18:54:11.124Z,19.60
2023-04-25T18:56:38.156Z,19.50
2023-04-25T18:59:05.181Z,19.50
2023-04-25T19:01:32.426Z,19.40
2023-04-25T19:03:59.841Z,19.30
2023-04-25T19:06:28.997Z,19.20
2023-04-25T19:08:57.595Z,19.20
2023-04-25T19:11:25.215Z,19.10
2023-04-25T19:13:52.580Z,19.00
2023-04-25T19:16:19.655Z,19.00
2023-04-25T19:18:47.099Z,18.90
2023-04-25T19:21:14.732Z,18.90
2023-04-25T19:23:41.751Z,18.80
2023-04-25T19:26:08.872Z,18.80
2023-04-25T19:28:35.811Z,18.80
2023-04-25T19:31:02.909Z,18.70
2023-04-25T19:33:29.973Z,18.70
2023-04-25T19:35:57.038Z,18.70
2023-04-25T19:38:24.140Z,18.60
2023-04-25T19:40:51.165Z,18.60
2023-04-25T19:43:18.472Z,18.50
2023-04-25T19:45:45.839Z,18.50
2023-04-25T19:48:14.125Z,18.40
2023-04-25T19:50:41.749Z,18.40
2023-04-25T19:53:09.615Z,18.30
2023-04-25T19:55:36.933Z,18.20
2023-04-25T19:58:04.472Z,18.20
2023-04-25T20:00:31.637Z,18.20
2023-04-25T20:02:58.661Z,18.10
2023-04-25T20:05:26.875Z,18.10
2023-04-25T20:07:53.972Z,18.10
2023-04-25T20:10:21.189Z,18.00
2023-04-25T20:12:48.581Z,18.00
2023-04-25T20:15:18.616Z,18.00
2023-04-25T20:17:45.949Z,17.90
2023-04-25T20:20:13.067Z,17.90
2023-04-25T20:22:40.529Z,17.80
2023-04-25T20:25:09.860Z,17.80
2023-04-25T20:27:40.218Z,17.80
2023-04-25T20:30:08.441Z,17.80
2023-04-25T20:32:36.645Z,17.70
2023-04-25T20:35:05.250Z,17.70
2023-04-25T20:37:32.718Z,17.60
2023-04-25T20:40:00.369Z,17.60
2023-04-25T20:42:27.572Z,17.50
2023-04-25T20:44:54.717Z,17.50
2023-04-25T20:47:22.352Z,17.50
2023-04-25T20:49:50.051Z,17.50
2023-04-25T20:52:19.992Z,17.50
2023-04-25T20:54:50.766Z,17.40
2023-04-25T20:57:17.918Z,17.40
2023-04-25T20:59:44.966Z,17.40
2023-04-25T21:02:14.760Z,17.30
2023-04-25T21:04:44.982Z,17.30
2023-04-25T21:07:13.308Z,17.20
2023-04-25T21:09:42.772Z,17.20
2023-04-25T21:12:09.717Z,17.20
2023-04-25T21:14:36.886Z,17.20
2023-04-25T21:17:04.450Z,17.20
2023-04-25T21:19:31.753Z,17.20
2023-04-25T21:21:59.036Z,17.10
2023-04-25T21:24:27.299Z,17.00
2023-04-25T21:26:54.261Z,17.00
2023-04-25T21:29:21.261Z,17.00
2023-04-25T21:31:48.495Z,17.00
2023-04-25T21:34:15.682Z,16.90
2023-04-25T21:36:44.254Z,16.90
2023-04-25T21:39:11.446Z,16.90
2023-04-25T21:41:38.613Z,16.90
2023-04-25T21:44:06.442Z,16.80
2023-04-25T21:46:34.220Z,16.80
2023-04-25T21:49:01.142Z,16.80
2023-04-25T21:51:28.768Z,16.80
2023-04-25T21:53:55.917Z,16.70
2023-04-25T21:56:23.083Z,16.70
2023-04-25T21:58:50.698Z,16.70
2023-04-25T22:01:18.206Z,16.60
2023-04-25T22:03:45.396Z,16.60
2023-04-25T22:06:12.417Z,16.60
2023-04-25T22:08:39.349Z,16.60
2023-04-25T22:11:07.509Z,16.60
2023-04-25T22:13:35.056Z,16.50
2023-04-25T22:16:02.136Z,16.50
2023-04-25T22:18:29.181Z,16.50
2023-04-25T22:20:56.471Z,16.50
2023-04-25T22:23:23.827Z,16.40
2023-04-25T22:25:50.760Z,16.40
2023-04-25T22:28:17.747Z,16.40
2023-04-25T22:30:44.787Z,16.40
2023-04-25T22:33:11.729Z,16.40
2023-04-25T22:35:38.678Z,16.40
2023-04-25T22:38:05.561Z,16.40
2023-04-25T22:40:32.774Z,16.30
2023-04-25T22:42:59.669Z,16.30
2023-04-25T22:45:27.339Z,16.30
2023-04-25T22:47:54.435Z,16.30
2023-04-25T22:50:21.464Z,16.20
2023-04-25T22:52:48.441Z,16.20
2023-04-25T22:55:15.761Z,16.20
2023-04-25T22:57:43.084Z,16.20
2023-04-25T23:00:19.961Z,16.10
2023-04-25T23:02:48.015Z,16.10
2023-04-25T23:05:15.696Z,16.10
2023-04-25T23:07:44.678Z,16.00
2023-04-25T23:10:13.092Z,16.00
2023-04-25T23:12:40.304Z,16.00
2023-04-25T23:15:08.338Z,16.00
2023-04-25T23:17:35.457Z,16.00
2023-04-25T23:20:06.000Z,16.00
2023-04-25T23:22:33.787Z,15.90
2023-04-25T23:25:01.059Z,15.90
2023-04-25T23:27:28.161Z,15.80
2023-04-25T23:29:56.640Z,15.80
2023-04-25T23:32:25.611Z,15.70
2023-04-25T23:34:52.759Z,15.70
2023-04-25T23:37:19.650Z,15.70
2023-04-25T23:39:52.913Z,15.70
2023-04-25T23:42:20.531Z,15.70
2023-04-25T23:44:47.513Z,15.70
2023-04-25T23:47:17.536Z,15.60
2023-04-25T23:49:45.657Z,15.60
2023-04-25T23:52:13.301Z,15.60
2023-04-25T23:54:40.283Z,15.60
2023-04-25T23:57:07.215Z,15.50
2023-04-25T23:59:34.217Z,15.50
